Time;durP1;ratioP1;P1;durP2;ratioP2;P2;SDS_P1;SDS_P2;PMS_P1;PMS_P2;Temp;Humidity;BMP_temperature;BMP_pressure;BME280_temperature;BME280_humidity;BME280_pressure;Samples;Min_cycle;Max_cycle;Signal;HPM_P1;HPM_P2
2023/06/12 00:01:47;;;;;;;7.97;4.70;;;18.50;99.90;;;;;;5115677;28;20179;-42
2023/06/12 00:04:13;;;;;;;7.20;4.60;;;18.40;99.90;;;;;;5116013;28;20217;-43
2023/06/12 00:06:40;;;;;;;6.70;4.50;;;18.40;99.90;;;;;;5115603;28;20178;-43
2023/06/12 00:09:06;;;;;;;19.90;4.40;;;18.20;99.90;;;;;;5115783;28;20182;-42
2023/06/12 00:11:31;;;;;;;5.03;4.43;;;18.20;99.90;;;;;;5115508;28;20299;-43
2023/06/12 00:13:57;;;;;;;7.57;4.47;;;18.10;99.90;;;;;;5116016;28;20213;-42
2023/06/12 00:16:23;;;;;;;8.13;4.37;;;18.00;99.90;;;;;;5115698;28;20234;-41
2023/06/12 00:18:49;;;;;;;5.37;4.10;;;17.90;99.90;;;;;;5115811;28;20178;-48
2023/06/12 00:21:15;;;;;;;5.20;4.70;;;17.80;99.90;;;;;;5115585;28;20189;-45
2023/06/12 00:23:41;;;;;;;5.93;3.93;;;17.80;99.90;;;;;;5115434;28;20202;-46
2023/06/12 00:26:08;;;;;;;7.23;4.60;;;17.70;99.90;;;;;;5115254;28;20719;-48
2023/06/12 00:28:34;;;;;;;5.50;4.47;;;17.60;99.90;;;;;;5115413;28;20178;-47
2023/06/12 00:31:00;;;;;;;8.33;4.17;;;17.60;99.90;;;;;;5113852;28;20178;-47
2023/06/12 00:33:26;;;;;;;5.70;4.30;;;17.60;99.90;;;;;;5115011;28;20198;-46
2023/06/12 00:35:51;;;;;;;6.07;4.23;;;17.50;99.90;;;;;;5115040;28;20166;-47
2023/06/12 00:38:17;;;;;;;5.00;4.23;;;17.50;99.90;;;;;;5113489;28;20219;-47
2023/06/12 00:40:43;;;;;;;4.50;4.00;;;17.40;99.90;;;;;;5115126;28;20531;-47
2023/06/12 00:43:09;;;;;;;6.40;4.10;;;17.40;99.90;;;;;;5114774;28;20174;-47
2023/06/12 00:45:35;;;;;;;7.03;4.17;;;17.40;99.90;;;;;;5114831;28;20206;-47
2023/06/12 00:48:03;;;;;;;7.73;4.40;;;17.40;99.90;;;;;;5114291;28;20197;-46
2023/06/12 00:50:28;;;;;;;5.70;4.43;;;17.30;99.90;;;;;;5114991;28;20586;-47
2023/06/12 00:52:56;;;;;;;6.33;4.37;;;17.30;99.90;;;;;;5114736;28;20171;-47
2023/06/12 00:55:22;;;;;;;7.87;4.20;;;17.30;99.90;;;;;;5114580;28;20277;-48
2023/06/12 00:57:48;;;;;;;5.33;4.20;;;17.20;99.90;;;;;;5114939;28;20174;-46
2023/06/12 01:00:17;;;;;;;6.80;3.87;;;17.10;99.90;;;;;;5114830;28;20257;-47
2023/06/12 01:02:45;;;;;;;4.77;4.13;;;17.20;99.90;;;;;;5115067;28;20178;-47
2023/06/12 01:05:19;;;;;;;6.10;4.17;;;17.10;99.90;;;;;;5114367;28;20198;-47
2023/06/12 01:07:55;;;;;;;4.30;3.80;;;17.10;99.90;;;;;;5114674;28;20246;-47
2023/06/12 01:10:36;;;;;;;8.97;4.13;;;17.10;99.90;;;;;;5114584;28;20222;-45
2023/06/12 01:13:03;;;;;;;7.43;4.20;;;17.00;99.90;;;;;;5114680;28;20182;-48
2023/06/12 01:15:29;;;;;;;6.07;4.73;;;17.00;99.90;;;;;;5114226;28;20277;-47
2023/06/12 01:17:58;;;;;;;6.17;4.20;;;16.90;99.90;;;;;;5114575;28;20208;-47
2023/06/12 01:20:24;;;;;;;7.00;4.20;;;16.90;99.90;;;;;;5114473;28;20178;-49
2023/06/12 01:23:18;;;;;;;5.93;4.50;;;16.90;99.90;;;;;;5114715;28;20231;-47
2023/06/12 01:26:33;;;;;;;6.63;4.57;;;16.80;99.90;;;;;;5114406;28;20194;-48
2023/06/12 01:29:07;;;;;;;7.13;4.30;;;16.80;99.90;;;;;;5076876;28;20192;-47
2023/06/12 01:32:01;;;;;;;4.63;4.20;;;16.70;99.90;;;;;;5114028;28;20158;-46
2023/06/12 01:34:36;;;;;;;7.07;4.40;;;16.70;99.90;;;;;;5109783;28;20217;-47
2023/06/12 01:37:26;;;;;;;5.33;4.20;;;16.70;99.90;;;;;;5113864;28;20178;-46
2023/06/12 01:40:07;;;;;;;6.07;4.33;;;16.60;99.90;;;;;;5114545;28;20617;-48
2023/06/12 01:42:33;;;;;;;4.90;3.80;;;16.50;99.90;;;;;;5113902;28;20295;-46
2023/06/12 01:44:59;;;;;;;6.33;4.10;;;16.50;99.90;;;;;;5113998;28;20249;-48
2023/06/12 01:47:25;;;;;;;6.13;4.47;;;16.50;99.90;;;;;;5114159;28;20682;-47
2023/06/12 01:49:50;;;;;;;5.50;4.17;;;16.40;99.90;;;;;;5113888;28;20189;-47
2023/06/12 01:52:16;;;;;;;6.73;4.20;;;16.40;99.90;;;;;;5114037;28;20668;-47
2023/06/12 01:54:45;;;;;;;6.40;4.37;;;16.40;99.90;;;;;;5113695;28;20217;-49
2023/06/12 01:57:11;;;;;;;6.27;4.43;;;16.30;99.90;;;;;;5114558;28;20178;-46
2023/06/12 01:59:37;;;;;;;10.33;4.37;;;16.20;99.90;;;;;;5113824;28;20186;-49
2023/06/12 02:02:03;;;;;;;6.90;4.10;;;16.20;99.90;;;;;;5113634;28;20231;-47
2023/06/12 02:04:29;;;;;;;8.93;4.57;;;16.20;99.90;;;;;;5113439;28;20288;-48
2023/06/12 02:06:55;;;;;;;7.50;4.63;;;16.20;99.90;;;;;;5113671;28;20216;-48
2023/06/12 02:09:21;;;;;;;6.93;4.30;;;16.10;99.90;;;;;;5113684;28;20533;-48
2023/06/12 02:11:46;;;;;;;5.83;4.27;;;16.00;99.90;;;;;;5113632;28;20170;-47
2023/06/12 02:14:12;;;;;;;6.83;4.10;;;15.90;99.90;;;;;;5113860;28;20202;-46
2023/06/12 02:16:37;;;;;;;5.20;3.90;;;15.90;99.90;;;;;;5113895;28;20182;-47
2023/06/12 02:19:03;;;;;;;6.13;3.83;;;15.80;99.90;;;;;;5113579;28;20195;-47
2023/06/12 02:21:28;;;;;;;9.30;4.03;;;15.70;99.90;;;;;;5113518;28;20525;-47
2023/06/12 02:23:54;;;;;;;6.77;4.07;;;15.70;99.90;;;;;;5113901;28;20208;-47
2023/06/12 02:26:20;;;;;;;6.43;3.80;;;15.70;99.90;;;;;;5113777;28;20177;-49
2023/06/12 02:29:05;;;;;;;9.30;4.00;;;15.60;99.90;;;;;;5113399;28;20174;-48
2023/06/12 02:31:30;;;;;;;15.03;4.23;;;15.60;99.90;;;;;;5113756;28;20517;-47
2023/06/12 02:33:56;;;;;;;8.30;4.50;;;15.60;99.90;;;;;;5113372;28;20198;-47
2023/06/12 02:36:21;;;;;;;5.20;4.47;;;15.50;99.90;;;;;;5113680;28;20182;-47
2023/06/12 02:38:48;;;;;;;9.37;4.40;;;15.50;99.90;;;;;;5113301;28;20221;-47
2023/06/12 02:41:13;;;;;;;8.80;4.33;;;15.50;99.90;;;;;;5113381;28;20177;-46
2023/06/12 02:43:39;;;;;;;7.20;4.27;;;15.40;99.90;;;;;;5113160;28;20198;-48
2023/06/12 02:46:04;;;;;;;6.43;4.23;;;15.40;99.90;;;;;;5113579;28;20187;-47
2023/06/12 02:48:30;;;;;;;10.23;4.67;;;15.40;99.90;;;;;;5113660;28;20185;-47
2023/06/12 02:50:55;;;;;;;11.10;4.80;;;15.40;99.90;;;;;;5113547;28;20174;-48
2023/06/12 02:53:21;;;;;;;13.30;4.60;;;15.40;99.90;;;;;;5113273;28;20178;-46
2023/06/12 02:55:46;;;;;;;9.53;4.20;;;15.30;99.90;;;;;;5112134;28;20182;-46
2023/06/12 02:58:12;;;;;;;8.27;4.63;;;15.30;99.90;;;;;;5113382;28;20174;-47
2023/06/12 03:00:38;;;;;;;13.50;4.90;;;15.30;99.90;;;;;;5113715;28;20520;-48
2023/06/12 03:03:05;;;;;;;9.03;4.63;;;15.30;99.90;;;;;;5113739;28;20181;-47
2023/06/12 03:05:30;;;;;;;7.87;4.37;;;15.20;99.90;;;;;;5114067;28;20213;-48
2023/06/12 03:07:57;;;;;;;14.73;5.00;;;15.10;99.90;;;;;;5115545;28;20273;-47
2023/06/12 03:10:23;;;;;;;18.90;5.50;;;15.10;99.90;;;;;;5115090;28;20182;-48
2023/06/12 03:12:48;;;;;;;8.70;4.63;;;15.10;99.90;;;;;;5116718;28;20182;-47
2023/06/12 03:15:14;;;;;;;11.03;4.70;;;15.10;99.90;;;;;;5117047;28;20190;-46
2023/06/12 03:17:40;;;;;;;22.33;5.30;;;15.00;99.90;;;;;;5116914;28;20552;-46
2023/06/12 03:20:07;;;;;;;11.87;5.07;;;15.00;99.90;;;;;;5116856;28;20174;-47
2023/06/12 03:22:33;;;;;;;16.40;4.60;;;14.90;99.90;;;;;;5116501;28;20205;-46
2023/06/12 03:24:59;;;;;;;7.53;4.43;;;14.90;99.90;;;;;;5116542;28;20698;-48
2023/06/12 03:27:25;;;;;;;15.70;4.20;;;14.90;99.90;;;;;;5116439;28;20642;-46
2023/06/12 03:29:51;;;;;;;11.73;4.77;;;14.80;99.90;;;;;;5117157;28;20265;-46
2023/06/12 03:32:17;;;;;;;13.97;4.83;;;14.80;99.90;;;;;;5116604;28;20178;-47
2023/06/12 03:34:43;;;;;;;15.03;4.77;;;14.80;99.90;;;;;;5116276;28;20623;-47
2023/06/12 03:37:08;;;;;;;15.63;5.03;;;14.80;99.90;;;;;;5116317;28;20194;-47
2023/06/12 03:39:34;;;;;;;18.27;5.43;;;14.70;99.90;;;;;;5116503;28;20162;-46
2023/06/12 03:42:00;;;;;;;14.07;5.10;;;14.70;99.90;;;;;;5116391;28;20185;-48
2023/06/12 03:44:25;;;;;;;7.97;4.90;;;14.70;99.90;;;;;;5116047;28;20198;-48
2023/06/12 03:46:51;;;;;;;14.03;5.07;;;14.70;99.90;;;;;;5116083;28;20222;-45
2023/06/12 03:49:16;;;;;;;10.97;5.03;;;14.70;99.90;;;;;;5116099;28;20666;-47
2023/06/12 03:51:42;;;;;;;12.43;5.10;;;14.70;99.90;;;;;;5116059;28;20174;-47
2023/06/12 03:54:09;;;;;;;9.10;4.63;;;14.70;99.90;;;;;;5115996;28;20198;-45
2023/06/12 03:56:35;;;;;;;15.10;4.50;;;14.70;99.90;;;;;;5116250;28;20207;-46
2023/06/12 03:59:01;;;;;;;7.60;4.80;;;14.70;99.90;;;;;;5115870;28;20265;-46
2023/06/12 04:01:26;;;;;;;10.23;4.50;;;14.70;99.90;;;;;;5115775;28;20550;-46
2023/06/12 04:03:53;;;;;;;8.43;4.57;;;14.70;99.90;;;;;;5115636;28;20213;-47
2023/06/12 04:06:24;;;;;;;8.90;4.57;;;14.80;99.90;;;;;;5116036;28;20178;-45
2023/06/12 04:08:51;;;;;;;8.10;4.67;;;14.80;99.90;;;;;;5116011;28;20162;-47
2023/06/12 04:11:19;;;;;;;10.63;4.43;;;14.80;99.90;;;;;;5115749;28;20182;-47
2023/06/12 04:13:45;;;;;;;13.30;5.60;;;14.90;99.90;;;;;;5115716;28;20247;-47
2023/06/12 04:16:10;;;;;;;15.17;5.20;;;14.90;99.90;;;;;;5115818;28;20178;-45
2023/06/12 04:18:37;;;;;;;9.70;4.63;;;14.90;99.90;;;;;;5115507;28;20172;-46
2023/06/12 04:21:04;;;;;;;10.53;5.40;;;15.00;99.90;;;;;;5115047;28;20739;-46
2023/06/12 04:23:30;;;;;;;9.67;4.97;;;15.10;99.90;;;;;;5115293;28;20205;-46
2023/06/12 04:26:05;;;;;;;8.53;4.70;;;15.10;99.90;;;;;;5115484;28;20217;-46
2023/06/12 04:28:32;;;;;;;8.60;4.93;;;15.20;99.90;;;;;;5115342;28;20154;-47
2023/06/12 04:30:59;;;;;;;10.80;4.57;;;15.20;99.90;;;;;;5115415;28;20174;-46
2023/06/12 04:33:30;;;;;;;10.40;4.70;;;15.30;99.90;;;;;;5114983;28;20174;-45
2023/06/12 04:35:57;;;;;;;5.80;4.60;;;15.30;99.90;;;;;;5115349;28;20499;-46
2023/06/12 04:38:23;;;;;;;10.47;4.70;;;15.40;99.90;;;;;;5115128;28;20247;-46
2023/06/12 04:40:51;;;;;;;11.70;4.77;;;15.30;99.90;;;;;;5114994;28;20189;-47
2023/06/12 04:43:19;;;;;;;10.07;4.80;;;15.40;99.90;;;;;;5115193;28;20178;-47
2023/06/12 04:45:45;;;;;;;9.53;4.50;;;15.40;99.90;;;;;;5115118;28;20210;-46
2023/06/12 04:48:11;;;;;;;11.43;4.93;;;15.40;99.90;;;;;;5114908;28;20665;-47
2023/06/12 04:50:36;;;;;;;9.57;4.63;;;15.50;99.90;;;;;;5115278;28;20248;-45
2023/06/12 04:53:02;;;;;;;9.00;4.63;;;15.50;99.90;;;;;;5114717;27;20613;-46
2023/06/12 04:55:28;;;;;;;9.60;4.90;;;15.60;99.90;;;;;;5114726;28;20198;-46
2023/06/12 04:57:55;;;;;;;14.73;5.40;;;15.60;99.90;;;;;;5115180;28;20586;-48
2023/06/12 05:00:21;;;;;;;14.97;5.87;;;15.60;99.90;;;;;;5114972;28;20190;-47
2023/06/12 05:02:46;;;;;;;9.83;5.37;;;15.70;99.90;;;;;;5114604;28;20174;-48
2023/06/12 05:05:12;;;;;;;15.40;5.30;;;15.70;99.90;;;;;;5114401;28;20549;-47
2023/06/12 05:07:38;;;;;;;11.67;4.43;;;15.80;99.90;;;;;;5114502;28;20202;-46
2023/06/12 05:10:04;;;;;;;12.53;5.23;;;15.90;99.90;;;;;;5114521;28;20227;-46
2023/06/12 05:12:30;;;;;;;14.07;5.50;;;15.90;99.90;;;;;;5114660;28;20178;-47
2023/06/12 05:14:59;;;;;;;12.77;5.40;;;16.00;99.90;;;;;;5114231;28;20202;-45
2023/06/12 05:17:25;;;;;;;15.23;5.10;;;16.10;99.90;;;;;;5114331;28;20677;-46
2023/06/12 05:19:51;;;;;;;13.10;6.07;;;16.10;99.90;;;;;;5114763;28;20185;-48
2023/06/12 05:22:17;;;;;;;7.03;5.00;;;16.20;99.90;;;;;;5114519;28;20177;-47
2023/06/12 05:24:42;;;;;;;13.10;5.90;;;16.30;99.90;;;;;;5114067;28;20206;-45
2023/06/12 05:27:08;;;;;;;10.60;6.37;;;16.40;99.90;;;;;;5114240;28;20545;-46
2023/06/12 05:29:33;;;;;;;14.03;5.60;;;16.50;99.90;;;;;;5114139;28;20174;-46
2023/06/12 05:31:59;;;;;;;13.23;6.10;;;16.60;99.90;;;;;;5114025;28;20170;-47
2023/06/12 05:34:25;;;;;;;16.27;6.03;;;16.70;99.90;;;;;;5113849;28;20226;-46
2023/06/12 05:36:50;;;;;;;16.57;6.07;;;16.80;99.90;;;;;;5114110;28;20278;-47
2023/06/12 05:39:16;;;;;;;17.33;5.17;;;16.90;99.90;;;;;;5114507;28;20227;-47
2023/06/12 05:41:42;;;;;;;13.23;5.70;;;17.00;99.90;;;;;;5114256;28;20647;-46
2023/06/12 05:44:08;;;;;;;13.63;5.60;;;17.10;99.90;;;;;;5113954;28;20245;-47
2023/06/12 05:46:34;;;;;;;21.40;6.13;;;17.20;99.90;;;;;;5114185;28;20265;-48
2023/06/12 05:49:00;;;;;;;8.07;4.97;;;17.30;99.90;;;;;;5113796;28;20206;-48
2023/06/12 05:51:27;;;;;;;10.83;5.20;;;17.40;99.90;;;;;;5114055;28;20177;-47
2023/06/12 05:53:53;;;;;;;12.37;5.20;;;17.50;99.90;;;;;;5114386;28;20240;-46
2023/06/12 05:56:18;;;;;;;11.43;5.43;;;17.60;99.90;;;;;;5114072;28;20194;-47
2023/06/12 05:58:44;;;;;;;8.00;4.53;;;17.80;99.90;;;;;;5113815;28;20166;-47
2023/06/12 06:01:16;;;;;;;6.20;4.77;;;17.90;99.90;;;;;;5113998;28;20197;-47
2023/06/12 06:03:45;;;;;;;5.50;4.63;;;18.10;99.90;;;;;;5113623;28;20262;-48
2023/06/12 06:06:14;;;;;;;11.03;5.73;;;18.20;99.90;;;;;;5114019;28;20178;-47
2023/06/12 06:08:40;;;;;;;7.50;4.87;;;18.50;99.90;;;;;;5113967;28;20595;-46
2023/06/12 06:11:06;;;;;;;6.63;4.70;;;18.60;99.90;;;;;;5113866;28;20193;-47
2023/06/12 06:13:32;;;;;;;7.63;5.13;;;18.80;99.90;;;;;;5114084;28;20213;-46
2023/06/12 06:15:57;;;;;;;8.40;4.83;;;18.90;99.90;;;;;;5113901;28;20174;-48
2023/06/12 06:18:24;;;;;;;11.07;4.90;;;19.00;99.90;;;;;;5113709;28;20166;-47
2023/06/12 06:20:49;;;;;;;9.23;5.00;;;19.10;99.90;;;;;;5113870;28;20236;-48
2023/06/12 06:23:15;;;;;;;6.63;5.20;;;19.30;99.90;;;;;;5113735;28;20270;-46
2023/06/12 06:25:41;;;;;;;9.33;5.40;;;19.50;99.90;;;;;;5113666;28;20639;-48
2023/06/12 06:28:06;;;;;;;8.33;5.13;;;19.70;99.90;;;;;;5113741;28;20174;-45
2023/06/12 06:30:32;;;;;;;6.57;4.50;;;19.90;99.90;;;;;;5113430;28;20646;-48
2023/06/12 06:32:58;;;;;;;7.13;4.40;;;20.10;99.90;;;;;;5113684;28;20206;-49
2023/06/12 06:35:24;;;;;;;7.93;4.50;;;20.40;99.90;;;;;;5113258;28;20224;-46
2023/06/12 06:37:50;;;;;;;10.60;5.20;;;20.70;99.90;;;;;;5113327;28;20251;-46
2023/06/12 06:40:16;;;;;;;9.87;5.30;;;20.90;99.90;;;;;;5113613;28;20190;-48
2023/06/12 06:42:42;;;;;;;9.47;5.20;;;21.10;99.90;;;;;;5113651;28;20269;-47
2023/06/12 06:45:08;;;;;;;13.13;5.23;;;21.30;99.90;;;;;;5116133;28;20202;-48
2023/06/12 06:47:33;;;;;;;15.07;5.30;;;21.50;99.90;;;;;;5117873;28;20171;-47
2023/06/12 06:49:59;;;;;;;17.53;5.43;;;21.70;99.90;;;;;;5117467;28;20227;-49
2023/06/12 06:52:25;;;;;;;16.80;5.20;;;21.70;99.90;;;;;;5117190;28;20201;-47
2023/06/12 06:54:51;;;;;;;15.77;5.27;;;21.70;99.90;;;;;;5117032;28;20226;-49
2023/06/12 06:57:17;;;;;;;24.80;5.33;;;21.80;99.90;;;;;;5117351;28;20182;-47
2023/06/12 06:59:43;;;;;;;15.93;5.53;;;21.80;99.90;;;;;;5116996;28;20265;-47
2023/06/12 07:02:08;;;;;;;18.30;5.47;;;22.00;99.90;;;;;;5117509;28;20182;-48
2023/06/12 07:04:34;;;;;;;19.90;5.27;;;22.10;99.90;;;;;;5117062;28;20202;-48
2023/06/12 07:07:00;;;;;;;16.53;5.17;;;22.20;99.90;;;;;;5117089;28;20177;-48
2023/06/12 07:09:25;;;;;;;13.97;4.97;;;22.40;99.90;;;;;;5116743;28;20170;-49
2023/06/12 07:11:51;;;;;;;22.30;5.33;;;22.60;99.90;;;;;;5116682;28;20175;-48
2023/06/12 07:14:17;;;;;;;16.27;5.00;;;22.80;99.90;;;;;;5116667;27;20243;-47
2023/06/12 07:16:43;;;;;;;23.57;5.33;;;22.90;99.90;;;;;;5116653;28;20650;-49
2023/06/12 07:19:09;;;;;;;9.43;4.77;;;23.10;99.90;;;;;;5116838;28;20186;-48
2023/06/12 07:21:35;;;;;;;7.63;4.33;;;23.30;99.90;;;;;;5116788;28;20673;-47
2023/06/12 07:24:01;;;;;;;14.23;4.70;;;23.40;99.90;;;;;;5116375;28;20206;-49
2023/06/12 07:26:27;;;;;;;11.63;5.03;;;23.60;99.90;;;;;;5116442;28;20514;-48
2023/06/12 07:28:53;;;;;;;6.93;4.53;;;23.70;99.90;;;;;;5116630;28;20186;-48
2023/06/12 07:31:19;;;;;;;7.37;4.97;;;23.80;99.90;;;;;;5116645;28;20178;-49
2023/06/12 07:33:44;;;;;;;4.80;4.27;;;23.80;99.90;;;;;;5116209;28;20194;-49
2023/06/12 07:36:10;;;;;;;7.63;4.60;;;24.00;99.90;;;;;;5116538;28;20174;-48
2023/06/12 07:38:36;;;;;;;8.20;4.67;;;24.20;99.90;;;;;;5116189;28;20658;-49
2023/06/12 07:41:02;;;;;;;5.50;4.83;;;24.20;99.90;;;;;;5116442;28;20174;-50
2023/06/12 07:43:32;;;;;;;8.57;4.40;;;24.30;99.90;;;;;;5116011;28;20190;-48
2023/06/12 07:45:57;;;;;;;11.07;5.10;;;24.40;99.90;;;;;;5116332;28;20238;-49
2023/06/12 07:48:23;;;;;;;7.00;4.27;;;24.50;99.90;;;;;;5116098;28;20231;-49
2023/06/12 07:50:49;;;;;;;16.53;4.90;;;24.60;99.90;;;;;;5116597;28;20170;-49
2023/06/12 07:53:14;;;;;;;9.53;4.40;;;24.70;99.90;;;;;;5116156;28;20220;-49
2023/06/12 07:55:40;;;;;;;6.00;4.90;;;24.80;99.90;;;;;;5115322;28;20174;-49
2023/06/12 07:58:08;;;;;;;6.47;4.73;;;24.90;99.90;;;;;;5115824;28;20202;-49
2023/06/12 08:00:35;;;;;;;6.00;4.20;;;25.00;99.90;;;;;;5116098;28;20548;-50
2023/06/12 08:03:03;;;;;;;6.43;4.70;;;25.00;99.90;;;;;;5116016;28;20256;-49
2023/06/12 08:05:29;;;;;;;6.13;4.80;;;25.20;99.90;;;;;;5115829;28;20209;-49
2023/06/12 08:07:55;;;;;;;6.10;4.50;;;25.20;99.90;;;;;;5116064;28;20269;-49
2023/06/12 08:10:21;;;;;;;5.27;4.23;;;25.30;99.90;;;;;;5115938;28;20666;-49
2023/06/12 08:12:46;;;;;;;10.20;5.07;;;25.40;99.90;;;;;;5115594;28;20182;-49
2023/06/12 08:15:13;;;;;;;4.77;4.27;;;25.50;99.90;;;;;;5115524;28;20225;-49
2023/06/12 08:17:42;;;;;;;6.40;5.07;;;25.50;99.90;;;;;;5115416;28;20188;-50
2023/06/12 08:20:10;;;;;;;9.73;4.70;;;25.60;99.90;;;;;;5115686;28;20232;-50
2023/06/12 08:22:36;;;;;;;6.90;4.70;;;25.60;99.90;;;;;;5115736;28;20170;-50
2023/06/12 08:25:09;;;;;;;10.10;4.97;;;25.60;99.90;;;;;;5115401;28;20564;-49
2023/06/12 08:27:35;;;;;;;9.40;4.90;;;25.70;99.90;;;;;;5115620;28;20159;-50
2023/06/12 08:30:03;;;;;;;7.53;4.40;;;25.80;99.90;;;;;;5115570;28;20167;-50
2023/06/12 08:32:28;;;;;;;8.83;5.17;;;25.90;99.90;;;;;;5115421;28;20186;-51
2023/06/12 08:34:54;;;;;;;7.20;5.00;;;26.00;99.90;;;;;;5115085;28;20209;-49
2023/06/12 08:37:20;;;;;;;6.10;4.63;;;26.10;99.90;;;;;;5115117;28;20198;-50
2023/06/12 08:39:46;;;;;;;6.07;5.00;;;26.20;99.90;;;;;;5115074;28;20178;-51
2023/06/12 08:42:15;;;;;;;8.13;5.27;;;26.30;99.90;;;;;;5115076;28;20594;-49
2023/06/12 08:44:44;;;;;;;7.67;4.63;;;26.40;99.90;;;;;;5115126;28;20214;-50
2023/06/12 08:47:10;;;;;;;8.43;4.90;;;26.50;99.90;;;;;;5115166;28;20182;-51
2023/06/12 08:49:37;;;;;;;7.10;4.80;;;26.60;99.90;;;;;;5114946;28;20177;-50
2023/06/12 08:52:03;;;;;;;10.03;5.00;;;26.70;99.90;;;;;;5114909;28;20697;-50
2023/06/12 08:54:36;;;;;;;7.90;5.00;;;26.80;99.90;;;;;;5114925;28;20198;-50
2023/06/12 08:57:03;;;;;;;8.30;4.70;;;26.80;99.90;;;;;;5115114;28;20174;-50
2023/06/12 08:59:29;;;;;;;5.43;4.63;;;26.90;99.90;;;;;;5114949;28;20213;-50
2023/06/12 09:01:56;;;;;;;7.20;4.70;;;26.90;99.90;;;;;;5114681;28;20182;-50
2023/06/12 09:05:02;;;;;;;8.17;5.30;;;27.10;99.90;;;;;;5114537;28;20237;-50
2023/06/12 09:07:31;;;;;;;8.80;4.80;;;27.20;99.90;;;;;;5101363;28;20186;-50
2023/06/12 09:09:57;;;;;;;8.73;4.67;;;27.30;99.90;;;;;;5114539;28;20730;-50
2023/06/12 09:12:23;;;;;;;5.83;4.40;;;27.40;99.90;;;;;;5114641;28;20261;-50
2023/06/12 09:14:50;;;;;;;8.70;5.33;;;27.60;99.90;;;;;;5114333;28;20662;-50
2023/06/12 09:17:16;;;;;;;6.50;4.55;;;27.70;99.90;;;;;;5115288;28;20606;-51
2023/06/12 09:19:44;;;;;;;7.97;4.82;;;27.80;99.90;;;;;;5115381;28;20274;-50
2023/06/12 09:22:10;;;;;;;6.10;4.93;;;28.00;99.90;;;;;;5114473;28;20178;-50
2023/06/12 09:24:36;;;;;;;7.00;4.60;;;28.10;99.90;;;;;;5114512;28;20221;-50
2023/06/12 09:27:03;;;;;;;6.57;4.95;;;28.20;99.90;;;;;;5114516;28;20221;-50
2023/06/12 09:29:33;;;;;;;5.90;4.53;;;28.30;99.90;;;;;;5114184;28;20178;-50
2023/06/12 09:32:04;;;;;;;10.75;4.43;;;28.30;99.90;;;;;;5114071;28;20643;-51
2023/06/12 09:34:34;;;;;;;5.88;4.40;;;28.30;99.90;;;;;;5114048;28;20194;-50
2023/06/12 09:37:00;;;;;;;6.47;4.35;;;28.50;99.90;;;;;;5114096;28;20186;-50
2023/06/12 09:39:27;;;;;;;5.43;3.90;;;28.40;99.90;;;;;;5114320;28;20162;-50
2023/06/12 09:41:57;;;;;;;8.82;4.50;;;28.50;99.90;;;;;;5114007;28;20182;-51
2023/06/12 09:44:28;;;;;;;6.57;4.05;;;28.60;99.90;;;;;;5114560;28;20220;-50
2023/06/12 09:46:59;;;;;;;5.28;4.15;;;28.70;99.90;;;;;;5114149;28;20336;-50
2023/06/12 09:49:25;;;;;;;4.43;4.03;;;28.90;99.90;;;;;;5114122;28;20163;-51
2023/06/12 09:51:52;;;;;;;8.93;4.05;;;29.00;99.90;;;;;;5113909;28;20578;-51
2023/06/12 09:54:19;;;;;;;9.18;4.40;;;29.00;99.90;;;;;;5113722;28;20565;-50
2023/06/12 09:56:46;;;;;;;9.70;4.22;;;29.10;99.90;;;;;;5114094;28;20182;-51
2023/06/12 09:59:18;;;;;;;7.22;4.78;;;29.20;99.90;;;;;;5114072;28;20601;-51
2023/06/12 10:02:00;;;;;;;7.63;4.35;;;29.20;99.90;;;;;;5114055;28;20162;-51
2023/06/12 10:04:37;;;;;;;7.28;4.70;;;29.40;99.90;;;;;;5113841;28;20213;-51
2023/06/12 10:07:07;;;;;;;7.18;4.40;;;29.50;99.90;;;;;;5113981;28;20231;-52
2023/06/12 10:09:33;;;;;;;8.45;4.43;;;29.60;99.90;;;;;;5113632;28;20274;-50
2023/06/12 10:11:59;;;;;;;6.03;4.07;;;29.70;99.90;;;;;;5113883;28;20666;-51
2023/06/12 10:14:29;;;;;;;7.85;4.50;;;29.80;99.90;;;;;;5113764;28;20289;-51
2023/06/12 10:16:58;;;;;;;6.40;4.65;;;29.80;99.90;;;;;;5113828;28;20182;-51
2023/06/12 10:19:25;;;;;;;4.90;4.30;;;29.80;99.90;;;;;;5115380;28;20174;-51
2023/06/12 10:21:54;;;;;;;6.80;4.93;;;29.80;99.90;;;;;;5117998;28;20186;-51
2023/06/12 10:24:21;;;;;;;4.80;4.30;;;29.90;99.90;;;;;;5117790;28;20213;-51
2023/06/12 10:26:49;;;;;;;7.10;4.65;;;30.00;99.90;;;;;;5117921;28;20207;-51
2023/06/12 10:29:26;;;;;;;5.90;4.50;;;30.10;99.90;;;;;;5117704;28;20171;-51
2023/06/12 10:31:52;;;;;;;5.45;4.72;;;30.20;99.90;;;;;;5117527;28;20536;-51
2023/06/12 10:34:17;;;;;;;4.32;3.85;;;30.20;99.90;;;;;;5117686;28;20213;-52
2023/06/12 10:36:46;;;;;;;5.22;4.03;;;30.30;99.90;;;;;;5117536;28;20537;-51
2023/06/12 10:39:23;;;;;;;7.30;4.13;;;30.30;99.90;;;;;;5117328;28;20638;-51
2023/06/12 10:41:53;;;;;;;4.10;3.60;;;30.30;99.90;;;;;;5117727;28;20177;-51
2023/06/12 10:44:38;;;;;;;7.10;4.47;;;30.30;99.90;;;;;;5117392;28;20263;-52
2023/06/12 10:47:04;;;;;;;8.57;4.60;;;30.40;99.90;;;;;;5117525;28;20154;-51
2023/06/12 10:49:30;;;;;;;5.30;4.15;;;30.50;99.90;;;;;;5117140;28;20311;-51
2023/06/12 10:51:58;;;;;;;5.00;4.03;;;30.50;99.90;;;;;;5117673;28;20246;-51
2023/06/12 10:54:27;;;;;;;6.85;4.30;;;30.70;99.90;;;;;;5117907;28;20202;-52
2023/06/12 10:57:00;;;;;;;5.05;3.97;;;30.80;99.90;;;;;;5117206;28;20173;-51
2023/06/12 10:59:36;;;;;;;4.45;4.03;;;30.80;99.90;;;;;;5116986;28;20174;-51
2023/06/12 11:02:02;;;;;;;4.93;4.10;;;30.90;99.90;;;;;;5117262;28;20556;-51
2023/06/12 11:04:34;;;;;;;5.78;4.10;;;30.90;99.90;;;;;;5117237;28;20206;-51
2023/06/12 11:07:00;;;;;;;5.63;3.95;;;31.00;99.90;;;;;;5117152;28;20159;-52
2023/06/12 11:09:26;;;;;;;7.30;4.30;;;31.00;99.90;;;;;;5116883;28;20179;-52
2023/06/12 11:11:51;;;;;;;6.60;3.92;;;31.00;99.30;;;;;;5117320;28;20231;-52
2023/06/12 11:14:23;;;;;;;9.10;3.40;;;31.10;99.90;;;;;;5116644;28;20221;-53
2023/06/12 11:16:49;;;;;;;6.30;3.63;;;31.10;99.90;;;;;;5117031;28;20170;-51
2023/06/12 11:19:14;;;;;;;3.67;3.38;;;31.20;99.90;;;;;;5116681;28;20166;-51
2023/06/12 11:21:40;;;;;;;4.28;3.80;;;31.30;99.70;;;;;;5116839;28;20211;-52
2023/06/12 11:24:07;;;;;;;5.03;3.92;;;31.40;99.90;;;;;;5116635;28;20194;-52
2023/06/12 11:26:33;;;;;;;3.92;3.63;;;31.50;97.90;;;;;;5116793;28;20176;-51
2023/06/12 11:29:15;;;;;;;6.47;3.88;;;31.60;98.70;;;;;;5116740;28;20266;-52
2023/06/12 11:31:41;;;;;;;3.38;3.08;;;31.70;98.70;;;;;;5115589;28;20567;-51
2023/06/12 11:34:06;;;;;;;3.92;3.47;;;31.70;98.20;;;;;;5116345;28;20192;-51
2023/06/12 11:36:32;;;;;;;5.10;3.50;;;31.70;97.20;;;;;;5116514;28;20638;-51
2023/06/12 11:38:57;;;;;;;3.95;3.45;;;31.60;96.90;;;;;;5117060;28;20178;-52
2023/06/12 11:41:23;;;;;;;4.95;3.20;;;31.70;95.10;;;;;;5116188;28;20638;-51
2023/06/12 11:43:49;;;;;;;4.40;3.40;;;31.70;96.30;;;;;;5116029;28;20681;-51
2023/06/12 11:46:15;;;;;;;3.78;3.10;;;31.70;97.40;;;;;;5116465;28;20186;-51
2023/06/12 11:48:41;;;;;;;4.43;3.50;;;31.80;97.50;;;;;;5116274;28;20669;-51
2023/06/12 11:51:08;;;;;;;3.50;3.20;;;31.80;95.30;;;;;;5116313;28;20243;-51
2023/06/12 11:53:33;;;;;;;4.07;3.35;;;31.90;93.50;;;;;;5116142;28;20190;-51
2023/06/12 11:56:00;;;;;;;3.75;3.03;;;32.00;95.80;;;;;;5116155;28;20265;-51
2023/06/12 11:58:36;;;;;;;5.57;3.40;;;32.00;93.80;;;;;;5116137;28;20654;-51
2023/06/12 12:01:10;;;;;;;3.53;3.22;;;32.00;96.30;;;;;;5116163;28;20199;-52
2023/06/12 12:03:37;;;;;;;6.15;3.40;;;32.10;93.00;;;;;;5115974;28;20229;-52
2023/06/12 12:06:02;;;;;;;5.32;3.75;;;32.20;96.00;;;;;;5114493;28;20305;-52
2023/06/12 12:08:28;;;;;;;6.15;3.47;;;32.30;94.10;;;;;;5115749;28;20588;-51
2023/06/12 12:10:54;;;;;;;4.95;3.35;;;32.30;93.80;;;;;;5115667;28;20707;-51
2023/06/12 12:13:19;;;;;;;3.50;3.20;;;32.50;95.70;;;;;;5115530;28;20173;-52
2023/06/12 12:15:45;;;;;;;7.03;3.75;;;32.60;96.20;;;;;;5115495;28;20182;-52
2023/06/12 12:18:16;;;;;;;6.07;3.95;;;32.70;95.10;;;;;;5115777;28;20181;-52
2023/06/12 12:20:42;;;;;;;4.70;4.05;;;32.80;94.30;;;;;;5115757;28;20213;-51
2023/06/12 12:23:12;;;;;;;4.18;3.78;;;32.90;95.90;;;;;;5115622;28;20178;-52
2023/06/12 12:25:40;;;;;;;3.78;3.47;;;32.90;93.00;;;;;;5115516;28;20202;-51
2023/06/12 12:28:07;;;;;;;5.57;3.47;;;33.00;96.40;;;;;;5117317;28;20178;-50
2023/06/12 12:30:33;;;;;;;6.65;3.65;;;33.00;95.40;;;;;;5116941;28;20569;-53
2023/06/12 12:32:59;;;;;;;4.57;3.55;;;33.10;94.40;;;;;;5115217;28;20169;-52
2023/06/12 12:35:26;;;;;;;6.82;3.95;;;33.20;96.90;;;;;;5115132;28;20625;-52
2023/06/12 12:37:54;;;;;;;10.30;4.10;;;33.30;98.30;;;;;;5114932;28;20693;-53
2023/06/12 12:40:23;;;;;;;4.25;3.88;;;33.30;96.50;;;;;;5116588;28;20654;-52
2023/06/12 12:42:50;;;;;;;4.15;3.45;;;33.30;94.10;;;;;;5115575;28;20243;-52
2023/06/12 12:45:18;;;;;;;6.60;3.88;;;33.30;94.80;;;;;;5114872;28;20342;-52